Airfield :
LOGIN :

Register | Disclaimer

   EN    FR    IT 

 










Legend :    VFR   Marginal VFR   IFR   Intensive IFR   Very Intensive IFR
Visi :
Ceiling :
>= 8 km
>= 3000ft
5 to 8 km
1000 to 3000 ft
1500m to 5 km
500 to 1000 ft
800 to 1500m
200 to 500 ft
< 800m
< 200 ft
Symbols :   Thunderstorms  Fog  Heavy snow  Heavy precipitations  Wind > 20 kt
SIGMETs :     Misc.  Thunderstorms  Icing  Turbulence  Mountain Waves  Volcanic Ashes






- Airport Elevation : 87 ft
- IATA code : FSC


LFKF - Figari

CURRENT METAR :
  • 200030Z AUTO 27017KT CAVOK 13/06 Q1012

EXPIRED METARs :
  • 200000Z AUTO 27017G28KT CAVOK 13/07 Q1012
  • 192330Z AUTO 27017KT 9999 FEW031 13/07 Q1013
  • 192300Z AUTO 26017G27KT 9999 FEW029 12/07 Q1013
  • 192230Z AUTO 26012KT 230V300 9999 SCT028 12/07 Q1014
  • 192200Z AUTO 24011KT 220V280 9999 FEW027 12/07 Q1014
  • 192130Z AUTO 25014KT 9999 FEW028 12/06 Q1014 NOSIG
  • 192100Z AUTO 24015KT 9999 FEW028 12/07 Q1014 NOSIG
  • 192030Z AUTO 24015KT 9999 SCT026 12/07 Q1015 NOSIG

TAF TAF LFKF
Valid from the 19 at 15:00 until the 20 at 15:00 UTC


191400Z 1915/2015 29015G25KT CAVOK
BECMG 1916/1918 28012KT
TEMPO 2003/2006 BKN013
BECMG 2005/2007 28020G33KT
BECMG 2013/2015 26007KT



MET'MAP, your aeronautical weather chart ! - Copyright ORBIFLY December 2007 - Disclaimer

ORBIFLY MET'MAP TEAM :

Programming & Development : Alexandra Zaïnal
Original concept : Baudouin d'Aumeries
Technical & hardware support : Manuel Goepfert
Assistance : Marc-Olivier Méhu




SOURCES & CREDITS :

   NOAA